createdAt,value
2023-02-08T00:00:31.665Z,6.57
2023-02-08T00:02:59.844Z,6.30
2023-02-08T00:05:28.181Z,5.73
2023-02-08T00:07:56.437Z,6.20
2023-02-08T00:10:24.592Z,6.13
2023-02-08T00:12:53.076Z,6.47
2023-02-08T00:15:22.942Z,6.03
2023-02-08T00:17:51.082Z,8.83
2023-02-08T00:20:19.635Z,6.53
2023-02-08T00:22:47.860Z,6.43
2023-02-08T00:25:16.001Z,7.30
2023-02-08T00:27:44.136Z,8.10
2023-02-08T00:30:12.710Z,6.37
2023-02-08T00:32:42.187Z,8.13
2023-02-08T00:35:10.605Z,6.23
2023-02-08T00:37:38.738Z,5.60
2023-02-08T00:40:07.147Z,6.47
2023-02-08T00:42:35.330Z,7.93
2023-02-08T00:45:03.497Z,5.37
2023-02-08T00:47:31.660Z,5.60
2023-02-08T00:50:01.169Z,6.93
2023-02-08T00:52:29.428Z,5.13
2023-02-08T00:54:57.568Z,6.50
2023-02-08T00:57:25.777Z,6.20
2023-02-08T00:59:53.956Z,7.43
2023-02-08T01:02:22.163Z,5.47
2023-02-08T01:04:50.402Z,7.70
2023-02-08T01:07:19.967Z,8.97
2023-02-08T01:09:48.104Z,8.90
2023-02-08T01:12:16.821Z,11.87
2023-02-08T01:14:44.986Z,9.77
2023-02-08T01:17:13.162Z,6.47
2023-02-08T01:19:42.621Z,6.07
2023-02-08T01:22:10.881Z,5.73
2023-02-08T01:24:40.374Z,8.27
2023-02-08T01:27:08.520Z,6.40
2023-02-08T01:29:36.788Z,8.53
2023-02-08T01:32:05.021Z,6.67
2023-02-08T01:34:33.164Z,5.90
2023-02-08T01:37:01.324Z,7.13
2023-02-08T01:39:29.492Z,7.00
2023-02-08T01:41:59.012Z,9.33
2023-02-08T01:44:45.885Z,6.23
2023-02-08T01:47:14.275Z,6.87
2023-02-08T01:49:42.456Z,8.00
2023-02-08T01:52:11.658Z,6.67
2023-02-08T01:54:40.502Z,6.23
2023-02-08T01:57:10.236Z,6.67
2023-02-08T01:59:41.052Z,8.73
2023-02-08T02:02:11.470Z,7.10
2023-02-08T02:04:39.747Z,8.33
2023-02-08T02:07:08.579Z,7.70
2023-02-08T02:09:39.717Z,8.17
2023-02-08T02:12:10.388Z,7.13
2023-02-08T02:14:39.682Z,10.70
2023-02-08T02:17:07.899Z,6.60
2023-02-08T02:19:41.942Z,6.73
2023-02-08T02:22:22.472Z,9.23
2023-02-08T02:25:08.586Z,8.10
2023-02-08T02:27:48.277Z,5.27
2023-02-08T02:30:34.277Z,7.57
2023-02-08T02:33:15.495Z,4.93
2023-02-08T02:35:47.284Z,6.20
2023-02-08T02:38:20.019Z,6.70
2023-02-08T02:40:52.656Z,8.10
2023-02-08T02:43:41.562Z,6.67
2023-02-08T02:46:12.855Z,5.03
2023-02-08T02:48:44.308Z,7.90
2023-02-08T02:51:15.416Z,8.27
2023-02-08T02:53:49.469Z,7.07
2023-02-08T02:56:19.901Z,7.13
2023-02-08T02:58:48.139Z,8.13
2023-02-08T03:01:26.075Z,7.50
2023-02-08T03:03:56.188Z,7.43
2023-02-08T03:06:29.993Z,7.67
2023-02-08T03:09:04.433Z,6.47
2023-02-08T03:11:34.430Z,7.50
2023-02-08T03:14:26.424Z,7.00
2023-02-08T03:17:04.258Z,6.77
2023-02-08T03:19:37.093Z,7.17
2023-02-08T03:22:08.521Z,5.47
2023-02-08T03:24:40.752Z,6.60
2023-02-08T03:27:11.719Z,7.53
2023-02-08T03:29:44.477Z,8.60
2023-02-08T03:32:15.057Z,7.10
2023-02-08T03:34:47.362Z,7.70
2023-02-08T03:37:16.966Z,7.80
2023-02-08T03:39:45.459Z,6.60
2023-02-08T03:42:16.721Z,8.47
2023-02-08T03:44:48.427Z,8.60
2023-02-08T03:47:18.577Z,6.03
2023-02-08T03:49:52.010Z,9.17
2023-02-08T03:52:20.764Z,6.20
2023-02-08T03:54:51.434Z,6.07
2023-02-08T03:57:21.689Z,7.87
2023-02-08T03:59:55.940Z,7.30
2023-02-08T04:02:25.739Z,6.50
2023-02-08T04:04:55.614Z,6.00
2023-02-08T04:07:24.092Z,7.20
2023-02-08T04:09:52.384Z,6.77
2023-02-08T04:12:20.665Z,7.37
2023-02-08T04:14:48.865Z,5.90
2023-02-08T04:17:17.161Z,6.13
2023-02-08T04:19:45.332Z,6.70
2023-02-08T04:22:14.852Z,5.87
2023-02-08T04:24:43.034Z,5.17
2023-02-08T04:27:11.233Z,6.43
2023-02-08T04:29:39.410Z,6.17
2023-02-08T04:32:11.477Z,6.07
2023-02-08T04:34:39.651Z,6.43
2023-02-08T04:37:08.297Z,5.60
2023-02-08T04:39:37.798Z,5.50
2023-02-08T04:42:05.935Z,5.20
2023-02-08T04:44:34.116Z,4.63
2023-02-08T04:47:02.587Z,4.10
2023-02-08T04:49:30.784Z,4.30
2023-02-08T04:51:59.042Z,4.07
2023-02-08T04:54:27.227Z,3.83
2023-02-08T04:56:56.833Z,3.83
2023-02-08T04:59:25.029Z,4.93
2023-02-08T05:01:53.240Z,3.27
2023-02-08T05:04:21.453Z,3.37
2023-02-08T05:06:49.673Z,3.83
2023-02-08T05:09:17.840Z,4.70
2023-02-08T05:11:45.989Z,3.50
2023-02-08T05:14:15.512Z,3.47
2023-02-08T05:16:43.662Z,4.83
2023-02-08T05:19:12.554Z,5.30
2023-02-08T05:21:40.693Z,4.30
2023-02-08T05:24:12.677Z,3.37
2023-02-08T05:26:40.986Z,4.23
2023-02-08T05:29:09.426Z,5.07
2023-02-08T05:31:39.113Z,3.17
2023-02-08T05:34:07.353Z,3.70
2023-02-08T05:36:35.532Z,3.77
2023-02-08T05:39:03.779Z,5.60
2023-02-08T05:41:31.950Z,6.17
2023-02-08T05:44:00.130Z,4.60
2023-02-08T05:46:28.339Z,4.67
2023-02-08T05:48:58.585Z,5.03
2023-02-08T05:51:26.725Z,4.93
2023-02-08T05:53:54.874Z,5.93
2023-02-08T05:56:23.032Z,5.27
2023-02-08T05:58:51.212Z,4.50
2023-02-08T06:01:19.391Z,6.10
2023-02-08T06:03:47.609Z,6.57
2023-02-08T06:06:17.149Z,8.27
2023-02-08T06:08:45.289Z,4.83
2023-02-08T06:11:13.429Z,6.10
2023-02-08T06:13:41.630Z,7.03
2023-02-08T06:16:10.033Z,5.23
2023-02-08T06:18:38.212Z,5.50
2023-02-08T06:21:06.815Z,5.23
2023-02-08T06:23:36.303Z,4.23
2023-02-08T06:26:04.477Z,6.50
2023-02-08T06:28:33.083Z,5.30
2023-02-08T06:31:01.337Z,4.97
2023-02-08T06:33:29.530Z,4.70
2023-02-08T06:35:57.684Z,8.47
2023-02-08T06:38:25.838Z,5.30
2023-02-08T06:40:55.346Z,4.67
2023-02-08T06:43:23.512Z,5.50
2023-02-08T06:45:51.769Z,7.03
2023-02-08T06:48:19.957Z,4.40
2023-02-08T06:50:48.144Z,6.03
2023-02-08T06:53:16.329Z,2.90
2023-02-08T06:55:44.800Z,3.23
2023-02-08T06:58:14.317Z,3.00
2023-02-08T07:00:45.265Z,4.23
2023-02-08T07:03:13.611Z,2.53
2023-02-08T07:05:49.503Z,4.13
2023-02-08T07:08:23.614Z,2.43
2023-02-08T07:10:51.777Z,2.40
2023-02-08T07:13:21.251Z,3.23
2023-02-08T07:15:49.385Z,1.70
2023-02-08T07:18:17.552Z,2.70
2023-02-08T07:20:45.696Z,3.30
2023-02-08T07:23:13.855Z,1.63
2023-02-08T07:25:42.021Z,3.40
2023-02-08T07:28:10.272Z,2.60
2023-02-08T07:30:40.136Z,2.77
2023-02-08T07:33:08.476Z,1.53
2023-02-08T07:35:36.623Z,2.27
2023-02-08T07:38:04.769Z,1.70
2023-02-08T07:40:33.046Z,4.57
2023-02-08T07:43:01.237Z,2.37
2023-02-08T07:45:29.391Z,3.40
2023-02-08T07:47:58.972Z,1.20
2023-02-08T07:50:27.330Z,4.47
2023-02-08T07:52:55.490Z,2.27
2023-02-08T07:55:23.618Z,1.87
2023-02-08T07:57:51.822Z,2.93
2023-02-08T08:00:20.587Z,5.73
2023-02-08T08:02:50.471Z,1.80
2023-02-08T08:05:20.642Z,1.93
2023-02-08T08:07:49.004Z,4.60
2023-02-08T08:10:17.222Z,1.63
2023-02-08T08:12:45.366Z,1.70
2023-02-08T08:15:13.546Z,2.00
2023-02-08T08:17:42.180Z,2.47
2023-02-08T08:20:10.979Z,3.03
2023-02-08T08:22:40.454Z,3.67
2023-02-08T08:25:08.698Z,2.63
2023-02-08T08:27:37.411Z,2.90
2023-02-08T08:30:05.750Z,5.90
2023-02-08T08:32:33.920Z,3.43
2023-02-08T08:35:02.074Z,2.80
2023-02-08T08:37:30.249Z,3.50
2023-02-08T08:39:59.807Z,2.97
2023-02-08T08:42:28.035Z,4.07
2023-02-08T08:44:56.233Z,6.90
2023-02-08T08:47:24.388Z,3.60
2023-02-08T08:49:52.515Z,4.77
2023-02-08T08:52:20.687Z,7.67
2023-02-08T08:54:48.804Z,5.50
2023-02-08T08:57:18.663Z,4.73
2023-02-08T08:59:46.813Z,10.10
2023-02-08T09:02:15.660Z,5.30
2023-02-08T09:04:43.853Z,5.47
2023-02-08T09:07:12.056Z,6.57
2023-02-08T09:09:40.840Z,4.23
2023-02-08T09:12:09.301Z,6.37
2023-02-08T09:14:38.780Z,6.87
2023-02-08T09:17:06.915Z,9.30
2023-02-08T09:19:35.121Z,7.33
2023-02-08T09:22:03.263Z,4.60
2023-02-08T09:24:31.405Z,4.40
2023-02-08T09:26:59.537Z,7.30
2023-02-08T09:29:29.475Z,5.43
2023-02-08T09:31:59.005Z,5.93
2023-02-08T09:34:27.183Z,9.93
2023-02-08T09:36:55.311Z,5.47
2023-02-08T09:39:24.897Z,6.27
2023-02-08T09:42:16.382Z,10.67
2023-02-08T09:45:05.105Z,9.87
2023-02-08T09:47:36.291Z,8.73
2023-02-08T09:50:06.638Z,6.97
2023-02-08T09:52:39.545Z,7.83
2023-02-08T09:55:22.521Z,10.87
2023-02-08T09:57:54.919Z,8.63
2023-02-08T10:00:28.439Z,7.10
2023-02-08T10:03:00.760Z,8.03
2023-02-08T10:05:32.316Z,6.37
2023-02-08T10:08:01.636Z,8.33
2023-02-08T10:10:41.831Z,11.10
2023-02-08T10:13:19.281Z,12.77
2023-02-08T10:15:52.124Z,9.70
2023-02-08T10:18:27.385Z,9.47
2023-02-08T10:21:02.014Z,8.43
2023-02-08T10:23:36.486Z,8.47
2023-02-08T10:26:11.088Z,9.33
2023-02-08T10:28:46.034Z,8.37
2023-02-08T10:31:20.937Z,9.30
2023-02-08T10:33:55.705Z,7.10
2023-02-08T10:36:27.217Z,8.67
2023-02-08T10:38:57.655Z,6.23
2023-02-08T10:41:27.933Z,9.33
2023-02-08T10:43:58.038Z,9.37
2023-02-08T10:46:27.588Z,7.80
2023-02-08T10:49:03.413Z,10.63
2023-02-08T10:51:31.672Z,6.53
2023-02-08T10:53:59.851Z,6.97
2023-02-08T10:56:36.475Z,6.07
2023-02-08T10:59:08.265Z,8.77
2023-02-08T11:01:36.412Z,8.93
2023-02-08T11:04:07.235Z,9.27
2023-02-08T11:06:35.412Z,7.40
2023-02-08T11:09:03.576Z,7.63
2023-02-08T11:11:36.220Z,10.13
2023-02-08T11:14:08.942Z,9.33
2023-02-08T11:16:38.213Z,7.13
2023-02-08T11:19:08.946Z,8.40
2023-02-08T11:21:38.874Z,10.70
2023-02-08T11:24:10.191Z,8.17
2023-02-08T11:26:39.266Z,9.97
2023-02-08T11:29:13.607Z,9.90
2023-02-08T11:31:42.154Z,10.67
2023-02-08T11:34:12.985Z,15.13
2023-02-08T11:36:47.245Z,9.23
2023-02-08T11:39:19.506Z,11.03
2023-02-08T11:41:48.160Z,13.20
2023-02-08T11:44:20.780Z,9.30
2023-02-08T11:46:49.667Z,9.07
2023-02-08T11:49:23.739Z,10.00
2023-02-08T11:51:52.626Z,10.33
2023-02-08T11:54:38.848Z,11.87
2023-02-08T11:57:13.146Z,8.80
2023-02-08T11:59:41.326Z,11.63
2023-02-08T12:02:22.302Z,12.50
2023-02-08T12:04:52.545Z,10.37
2023-02-08T12:07:25.170Z,10.57
2023-02-08T12:10:29.240Z,13.50
2023-02-08T12:13:24.101Z,11.30
2023-02-08T12:16:06.657Z,12.73
2023-02-08T12:18:52.098Z,11.27
2023-02-08T12:21:26.190Z,15.67
2023-02-08T12:23:58.520Z,11.47
2023-02-08T12:26:45.446Z,10.70
2023-02-08T12:29:38.349Z,9.63
2023-02-08T12:32:25.145Z,14.60
2023-02-08T12:35:04.972Z,10.10
2023-02-08T12:38:00.843Z,7.80
2023-02-08T12:40:52.578Z,10.63
2023-02-08T12:43:35.119Z,8.77
2023-02-08T12:46:18.680Z,8.40
2023-02-08T12:49:11.709Z,9.37
2023-02-08T12:51:48.601Z,8.63
2023-02-08T12:54:26.657Z,10.00
2023-02-08T12:57:02.538Z,12.30
2023-02-08T12:59:36.147Z,7.53
2023-02-08T13:02:12.886Z,10.30
2023-02-08T13:04:46.024Z,9.00
2023-02-08T13:07:17.010Z,7.70
2023-02-08T13:09:53.027Z,8.27
2023-02-08T13:12:24.831Z,9.10
2023-02-08T13:15:01.406Z,7.47
2023-02-08T13:17:43.386Z,7.80
2023-02-08T13:20:24.069Z,8.30
2023-02-08T13:22:54.096Z,9.73
2023-02-08T13:25:30.422Z,8.30
2023-02-08T13:28:01.944Z,7.17
2023-02-08T13:30:30.223Z,6.53
2023-02-08T13:32:59.381Z,7.10
2023-02-08T13:35:30.898Z,7.50
2023-02-08T13:38:03.965Z,6.70
2023-02-08T13:40:35.316Z,7.83
2023-02-08T13:43:05.855Z,6.17
2023-02-08T13:45:36.586Z,9.77
2023-02-08T13:48:07.513Z,9.83
2023-02-08T13:50:48.535Z,6.67
2023-02-08T13:53:18.303Z,5.97
2023-02-08T13:56:06.699Z,6.83
2023-02-08T13:59:00.613Z,6.73
2023-02-08T14:01:30.338Z,6.93
2023-02-08T14:04:17.965Z,8.00
2023-02-08T14:06:50.615Z,7.17
2023-02-08T14:09:26.643Z,6.23
2023-02-08T14:12:01.132Z,7.13
2023-02-08T14:14:31.997Z,7.03
2023-02-08T14:17:21.474Z,6.40
2023-02-08T14:19:59.717Z,7.17
2023-02-08T14:22:31.476Z,5.57
2023-02-08T14:25:04.850Z,4.83
2023-02-08T14:27:38.995Z,5.53
2023-02-08T14:30:20.934Z,6.93
2023-02-08T14:32:50.943Z,10.90
2023-02-08T14:35:21.925Z,7.30
2023-02-08T14:37:55.885Z,5.43
2023-02-08T14:40:50.353Z,5.90
2023-02-08T14:43:35.706Z,6.40
2023-02-08T14:46:44.216Z,8.20
2023-02-08T14:49:14.082Z,8.27
2023-02-08T14:51:46.400Z,7.90
2023-02-08T14:54:22.960Z,7.00
2023-02-08T14:56:57.769Z,6.27
2023-02-08T14:59:29.934Z,5.73
2023-02-08T15:02:00.849Z,6.70
2023-02-08T15:04:29.262Z,5.10
2023-02-08T15:07:21.660Z,8.57
2023-02-08T15:09:49.503Z,8.30
2023-02-08T15:12:26.364Z,7.37
2023-02-08T15:14:57.979Z,10.27
2023-02-08T15:17:36.380Z,6.47
2023-02-08T15:20:08.371Z,7.07
2023-02-08T15:22:38.372Z,7.20
2023-02-08T15:25:23.302Z,5.90
2023-02-08T15:27:52.955Z,6.70
2023-02-08T15:30:28.491Z,5.93
2023-02-08T15:32:57.454Z,6.73
2023-02-08T15:35:25.896Z,10.17
2023-02-08T15:37:55.530Z,7.77
2023-02-08T15:40:26.458Z,8.20
2023-02-08T15:42:54.351Z,6.40
2023-02-08T15:45:30.572Z,4.50
2023-02-08T15:47:59.772Z,5.67
2023-02-08T15:50:29.213Z,5.33
2023-02-08T15:53:00.565Z,4.80
2023-02-08T15:55:31.506Z,4.87
2023-02-08T15:58:03.208Z,3.63
2023-02-08T16:00:35.332Z,5.20
2023-02-08T16:03:08.314Z,5.07
2023-02-08T16:05:37.123Z,4.50
2023-02-08T16:08:05.801Z,8.27
2023-02-08T16:10:36.732Z,4.97
2023-02-08T16:13:07.180Z,8.60
2023-02-08T16:15:38.618Z,7.63
2023-02-08T16:18:06.625Z,5.70
2023-02-08T16:20:36.695Z,4.50
2023-02-08T16:23:05.883Z,5.53
2023-02-08T16:25:36.173Z,5.77
2023-02-08T16:28:05.889Z,6.27
2023-02-08T16:30:34.395Z,6.77
2023-02-08T16:33:09.453Z,5.27
2023-02-08T16:35:39.275Z,5.30
2023-02-08T16:38:10.028Z,5.80
2023-02-08T16:40:43.317Z,5.13
2023-02-08T16:43:17.174Z,6.03
2023-02-08T16:45:45.364Z,4.33
2023-02-08T16:48:35.018Z,4.90
2023-02-08T16:51:03.480Z,4.80
2023-02-08T16:53:41.267Z,5.07
2023-02-08T16:56:10.096Z,4.53
2023-02-08T16:58:38.594Z,6.60
2023-02-08T17:01:07.353Z,6.37
2023-02-08T17:03:38.297Z,5.43
2023-02-08T17:06:06.916Z,6.47
2023-02-08T17:08:36.265Z,6.47
2023-02-08T17:11:04.486Z,6.07
2023-02-08T17:13:32.633Z,6.47
2023-02-08T17:16:01.189Z,6.73
2023-02-08T17:18:29.384Z,4.87
2023-02-08T17:21:00.624Z,9.70
2023-02-08T17:23:28.874Z,3.93
2023-02-08T17:25:58.380Z,5.07
2023-02-08T17:28:26.568Z,4.40
2023-02-08T17:30:54.784Z,10.63
2023-02-08T17:33:23.008Z,5.33
2023-02-08T17:35:52.136Z,6.87
2023-02-08T17:38:22.057Z,5.33
2023-02-08T17:40:50.225Z,6.00
2023-02-08T17:43:18.840Z,6.07
2023-02-08T17:45:47.666Z,9.40
2023-02-08T17:48:16.333Z,6.57
2023-02-08T17:50:47.747Z,7.73
2023-02-08T17:53:15.967Z,6.63
2023-02-08T17:55:46.014Z,9.07
2023-02-08T17:58:14.628Z,5.97
2023-02-08T18:00:42.867Z,7.07
2023-02-08T18:03:11.983Z,6.17
2023-02-08T18:05:40.178Z,10.73
2023-02-08T18:08:08.336Z,6.97
2023-02-08T18:10:36.508Z,7.53
2023-02-08T18:13:06.073Z,6.40
2023-02-08T18:15:35.571Z,11.00
2023-02-08T18:18:03.939Z,8.47
2023-02-08T18:20:32.120Z,12.27
2023-02-08T18:23:00.314Z,10.27
2023-02-08T18:25:28.559Z,9.47
2023-02-08T18:27:57.972Z,8.17
2023-02-08T18:30:28.042Z,10.47
2023-02-08T18:32:56.342Z,9.30
2023-02-08T18:35:24.524Z,11.50
2023-02-08T18:37:53.502Z,8.10
2023-02-08T18:40:21.839Z,8.83
2023-02-08T18:42:50.000Z,7.97
2023-02-08T18:45:18.279Z,10.37
2023-02-08T18:47:47.812Z,11.90
2023-02-08T18:50:16.285Z,8.30
2023-02-08T18:52:44.456Z,8.43
2023-02-08T18:55:12.618Z,7.67
2023-02-08T18:57:40.915Z,7.93
2023-02-08T19:00:09.631Z,7.50
2023-02-08T19:02:39.544Z,8.63
2023-02-08T19:05:09.445Z,6.70
2023-02-08T19:07:39.213Z,7.50
2023-02-08T19:10:08.336Z,8.60
2023-02-08T19:12:37.642Z,9.07
2023-02-08T19:15:06.253Z,6.30
2023-02-08T19:17:34.436Z,6.67
2023-02-08T19:20:02.571Z,5.47
2023-02-08T19:22:32.697Z,5.93
2023-02-08T19:25:00.936Z,5.80
2023-02-08T19:27:29.488Z,6.43
2023-02-08T19:29:57.670Z,8.43
2023-02-08T19:32:25.936Z,6.67
2023-02-08T19:34:54.152Z,4.90
2023-02-08T19:37:22.391Z,4.87
2023-02-08T19:39:51.940Z,8.10
2023-02-08T19:42:20.125Z,7.17
2023-02-08T19:44:48.318Z,6.47
2023-02-08T19:47:16.471Z,6.37
2023-02-08T19:49:44.636Z,7.67
2023-02-08T19:52:13.168Z,7.40
2023-02-08T19:54:41.348Z,7.63
2023-02-08T19:57:12.590Z,8.50
2023-02-08T19:59:40.753Z,6.93
2023-02-08T20:02:08.958Z,8.87
2023-02-08T20:04:37.151Z,11.67
2023-02-08T20:07:05.643Z,8.60
2023-02-08T20:09:33.945Z,11.67
2023-02-08T20:12:02.110Z,10.30
2023-02-08T20:14:33.831Z,12.80
2023-02-08T20:17:02.688Z,8.23
2023-02-08T20:19:30.856Z,9.50
2023-02-08T20:21:59.048Z,8.47
2023-02-08T20:24:27.225Z,6.00
2023-02-08T20:26:55.406Z,6.67
2023-02-08T20:29:23.658Z,7.10
2023-02-08T20:31:55.578Z,7.47
2023-02-08T20:34:23.843Z,8.23
2023-02-08T20:37:06.297Z,6.43
2023-02-08T20:39:35.554Z,6.57
2023-02-08T20:42:03.831Z,7.77
2023-02-08T20:44:32.430Z,6.57
2023-02-08T20:47:02.217Z,6.33
2023-02-08T20:49:32.062Z,5.70
2023-02-08T20:52:00.283Z,5.97
2023-02-08T20:54:28.465Z,6.37
2023-02-08T20:56:56.766Z,5.27
2023-02-08T20:59:25.362Z,6.97
2023-02-08T21:01:53.515Z,6.20
2023-02-08T21:04:23.782Z,6.73
2023-02-08T21:06:52.674Z,4.90
2023-02-08T21:09:21.090Z,5.80
2023-02-08T21:11:49.255Z,8.67
2023-02-08T21:14:19.122Z,5.97
2023-02-08T21:16:48.565Z,5.87
2023-02-08T21:19:17.167Z,5.73
2023-02-08T21:21:47.314Z,10.47
2023-02-08T21:24:15.487Z,6.13
2023-02-08T21:26:43.646Z,6.07
2023-02-08T21:29:12.709Z,7.13
2023-02-08T21:31:40.971Z,6.63
2023-02-08T21:34:09.352Z,5.43
2023-02-08T21:36:37.539Z,5.67
2023-02-08T21:39:07.182Z,6.07
2023-02-08T21:41:35.575Z,8.67
2023-02-08T21:44:04.742Z,9.03
2023-02-08T21:46:33.331Z,6.83
2023-02-08T21:49:19.511Z,8.17
2023-02-08T21:52:05.522Z,8.77
2023-02-08T21:54:45.718Z,7.47
2023-02-08T21:57:16.055Z,6.67
2023-02-08T21:59:44.422Z,8.23
2023-02-08T22:02:14.728Z,7.60
2023-02-08T22:04:46.597Z,8.97
2023-02-08T22:07:15.167Z,6.33
2023-02-08T22:09:44.774Z,9.67
2023-02-08T22:12:15.584Z,8.23
2023-02-08T22:14:44.204Z,10.67
2023-02-08T22:17:12.592Z,13.50
2023-02-08T22:19:40.922Z,10.73
2023-02-08T22:22:09.613Z,11.97
2023-02-08T22:24:38.134Z,11.67
2023-02-08T22:27:07.689Z,12.10
2023-02-08T22:29:35.968Z,7.10
2023-02-08T22:32:05.474Z,6.97
2023-02-08T22:34:33.818Z,8.03
2023-02-08T22:37:04.041Z,8.90
2023-02-08T22:39:32.891Z,7.37
2023-02-08T22:42:01.079Z,7.63
2023-02-08T22:44:30.656Z,6.60
2023-02-08T22:47:01.570Z,6.27
2023-02-08T22:49:30.013Z,6.63
2023-02-08T22:51:58.204Z,5.53
2023-02-08T22:54:26.903Z,6.47
2023-02-08T22:56:55.145Z,6.13
2023-02-08T22:59:23.356Z,7.20
2023-02-08T23:01:53.067Z,5.33
2023-02-08T23:04:21.263Z,6.40
2023-02-08T23:06:49.460Z,5.70
2023-02-08T23:09:17.984Z,8.03
2023-02-08T23:11:46.126Z,7.23
2023-02-08T23:14:14.374Z,9.77
2023-02-08T23:16:42.512Z,7.27
2023-02-08T23:19:15.898Z,4.67
2023-02-08T23:21:44.426Z,6.00
2023-02-08T23:24:12.917Z,6.67
2023-02-08T23:26:41.360Z,5.53
2023-02-08T23:29:09.523Z,5.17
2023-02-08T23:31:40.646Z,6.13
2023-02-08T23:34:11.263Z,5.77
2023-02-08T23:36:41.100Z,6.87
2023-02-08T23:39:09.689Z,8.37
2023-02-08T23:41:37.840Z,6.43
2023-02-08T23:44:06.064Z,6.67
2023-02-08T23:46:34.579Z,6.10
2023-02-08T23:49:02.877Z,6.07
2023-02-08T23:51:31.069Z,6.03
2023-02-08T23:54:00.577Z,6.93
2023-02-08T23:56:29.511Z,7.20
2023-02-08T23:58:58.674Z,7.90
